Time;durP1;ratioP1;P1;durP2;ratioP2;P2;SDS_P1;SDS_P2;PMS_P1;PMS_P2;Temp;Humidity;BMP_temperature;BMP_pressure;BME280_temperature;BME280_humidity;BME280_pressure;Samples;Min_cycle;Max_cycle;Signal;HPM_P1;HPM_P2
2023/11/12 00:00:11;;;;;;;;;18.50;18.25;;;;;13.09;100.00;99874.97;2104159;28;46818;-49
2023/11/12 00:01:12;;;;;;;;;21.00;20.60;;;;;13.09;100.00;99865.16;2089749;28;47012;-49
2023/11/12 00:02:12;;;;;;;;;17.25;17.25;;;;;13.10;100.00;99864.22;2091077;28;46742;-47
2023/11/12 00:03:12;;;;;;;;;16.00;16.00;;;;;13.11;100.00;99862.44;2104935;28;46516;-46
2023/11/12 00:04:13;;;;;;;;;18.25;15.25;;;;;13.12;100.00;99853.50;2103080;28;46230;-47
2023/11/12 00:05:13;;;;;;;;;16.25;14.50;;;;;13.11;100.00;99849.97;2096743;28;46236;-47
2023/11/12 00:06:13;;;;;;;;;17.00;16.00;;;;;13.11;100.00;99844.66;2095001;28;46092;-46
2023/11/12 00:07:14;;;;;;;;;15.50;14.50;;;;;13.12;100.00;99850.84;2102837;28;46302;-49
2023/11/12 00:08:14;;;;;;;;;14.75;14.50;;;;;13.11;100.00;99849.97;2105247;27;46719;-46
2023/11/12 00:09:15;;;;;;;;;13.75;13.75;;;;;13.12;100.00;99845.50;2103445;28;45941;-49
2023/11/12 00:10:16;;;;;;;;;17.00;16.60;;;;;13.12;100.00;99851.69;2103598;28;46340;-47
2023/11/12 00:11:16;;;;;;;;;17.00;15.75;;;;;13.13;100.00;99845.44;2097320;28;46396;-45
2023/11/12 00:12:18;;;;;;;;;17.75;15.00;;;;;13.13;100.00;99841.91;2082109;28;46755;-48
2023/11/12 00:13:20;;;;;;;;;15.80;15.20;;;;;13.12;100.00;99838.38;2063424;28;47019;-48
2023/11/12 00:14:20;;;;;;;;;17.80;17.80;;;;;13.10;100.00;99840.25;2100517;28;46403;-49
2023/11/12 00:15:20;;;;;;;;;18.25;15.25;;;;;13.09;100.00;99840.34;2103233;28;46128;-50
2023/11/12 00:16:22;;;;;;;;;16.00;15.75;;;;;13.09;100.00;99841.19;2096498;28;46556;-47
2023/11/12 00:17:24;;;;;;;;;17.60;17.20;;;;;13.09;100.00;99845.66;2094315;28;45734;-49
2023/11/12 00:18:24;;;;;;;;;14.00;12.60;;;;;13.09;100.00;99843.88;2073058;28;46729;-46
2023/11/12 00:19:25;;;;;;;;;13.00;13.00;;;;;13.08;100.00;99847.44;2096168;28;46512;-51
2023/11/12 00:20:27;;;;;;;;;13.25;13.25;;;;;13.08;100.00;99846.56;2092102;28;46223;-51
2023/11/12 00:21:29;;;;;;;;;16.60;15.80;;;;;13.07;100.00;99850.16;2095858;28;46261;-49
2023/11/12 00:22:29;;;;;;;;;16.60;15.00;;;;;13.07;100.00;99850.16;2103859;28;46352;-47
2023/11/12 00:23:29;;;;;;;;;18.25;17.25;;;;;13.05;100.00;99850.25;2095027;28;46487;-48
2023/11/12 00:24:30;;;;;;;;;14.25;13.25;;;;;13.02;100.00;99846.84;2093857;28;46799;-49
2023/11/12 00:25:30;;;;;;;;;19.50;18.00;;;;;13.04;100.00;99853.84;2094062;28;46392;-48
2023/11/12 00:26:30;;;;;;;;;14.25;13.00;;;;;13.05;100.00;99850.25;2094714;28;46307;-48
2023/11/12 00:27:31;;;;;;;;;15.75;14.50;;;;;13.03;100.00;99846.78;2096999;28;46247;-47
2023/11/12 00:28:31;;;;;;;;;17.50;16.50;;;;;13.02;100.00;99844.19;2073217;28;46453;-47
2023/11/12 00:29:33;;;;;;;;;15.25;15.25;;;;;13.01;100.00;99838.00;2067807;28;46481;-47
2023/11/12 00:30:33;;;;;;;;;18.80;16.40;;;;;13.00;100.00;99846.94;2068404;28;46638;-46
2023/11/12 00:31:34;;;;;;;;;15.75;14.00;;;;;13.01;100.00;99826.50;2069512;28;47251;-47
2023/11/12 00:32:34;;;;;;;;;14.25;14.25;;;;;13.01;100.00;99829.16;2071456;28;46684;-47
2023/11/12 00:33:35;;;;;;;;;14.25;13.50;;;;;12.99;100.00;99823.03;2073413;28;46479;-48
2023/11/12 00:34:35;;;;;;;;;14.75;14.75;;;;;12.98;100.00;99819.50;2070865;28;46735;-47
2023/11/12 00:35:35;;;;;;;;;14.00;13.33;;;;;12.97;100.00;99820.44;2065452;28;46373;-48
2023/11/12 00:36:42;;;;;;;;;11.00;8.75;;;;;12.98;100.00;99808.84;2085389;28;45104;-50
2023/11/12 00:37:42;;;;;;;;;14.60;13.80;;;;;12.97;100.00;99812.47;2104251;28;46673;-48
2023/11/12 00:38:43;;;;;;;;;13.00;13.00;;;;;12.96;100.00;99808.94;2105844;27;46320;-44
2023/11/12 00:39:43;;;;;;;;;17.25;14.50;;;;;12.94;100.00;99800.13;2104274;27;46671;-47
2023/11/12 00:40:45;;;;;;;;;15.25;15.25;;;;;12.94;100.00;99797.47;2105962;28;46279;-46
2023/11/12 00:41:45;;;;;;;;;15.40;14.20;;;;;12.93;100.00;99789.53;2104198;28;46381;-48
2023/11/12 00:42:45;;;;;;;;;14.00;14.00;;;;;12.92;100.00;99793.16;2112229;27;46723;-46
2023/11/12 00:43:46;;;;;;;;;16.75;13.75;;;;;12.90;100.00;99792.34;2078625;28;46572;-48
2023/11/12 00:44:46;;;;;;;;;13.33;11.00;;;;;12.91;100.00;99786.09;2059857;28;45721;-49
2023/11/12 00:45:58;;;;;;;;;13.33;12.67;;;;;12.91;100.00;99796.75;2054374;28;46414;-46
2023/11/12 00:46:59;;;;;;;;;13.50;12.75;;;;;12.91;100.00;99792.28;2056190;28;46275;-50
2023/11/12 00:47:59;;;;;;;;;10.00;10.00;;;;;12.92;100.00;99794.00;2088006;28;46871;-50
2023/11/12 00:49:02;;;;;;;;;12.00;11.25;;;;;12.93;100.00;99793.06;2070970;28;46476;-48
2023/11/12 00:50:03;;;;;;;;;12.60;12.60;;;;;12.90;100.00;99787.91;2069767;28;47009;-48
2023/11/12 00:51:04;;;;;;;;;11.40;10.80;;;;;12.90;100.00;99789.69;2063355;28;45265;-49
2023/11/12 00:52:05;;;;;;;;;13.80;12.80;;;;;12.89;100.00;99785.31;2072528;28;46592;-52
2023/11/12 00:53:05;;;;;;;;;12.25;12.00;;;;;12.90;100.00;99789.69;2063664;28;46795;-48
2023/11/12 00:54:06;;;;;;;;;13.50;12.00;;;;;12.91;100.00;99786.97;2087764;28;46871;-48
2023/11/12 00:55:06;;;;;;;;;17.25;15.75;;;;;12.92;100.00;99791.34;2085466;28;46361;-49
2023/11/12 00:56:07;;;;;;;;;12.00;10.33;;;;;12.93;100.00;99789.53;2100879;28;45938;-48
2023/11/12 00:57:08;;;;;;;;;7.60;6.40;;;;;12.93;100.00;99784.22;2081185;28;46297;-47
2023/11/12 00:58:08;;;;;;;;;13.00;11.50;;;;;12.91;100.00;99789.63;2092757;27;46684;-49
2023/11/12 00:59:08;;;;;;;;;10.00;9.33;;;;;12.92;100.00;99786.03;2094356;28;46215;-48
2023/11/12 01:00:09;;;;;;;;;10.33;10.00;;;;;12.92;100.00;99783.34;2080479;27;46324;-47
2023/11/12 01:01:10;;;;;;;;;11.50;11.50;;;;;12.91;100.00;99776.31;2099307;27;46448;-51
2023/11/12 01:02:15;;;;;;;;;12.00;11.33;;;;;12.89;100.00;99778.19;2069170;28;46762;-47
2023/11/12 01:03:15;;;;;;;;;10.80;10.60;;;;;12.89;100.00;99780.84;2068620;28;46467;-47
2023/11/12 01:04:15;;;;;;;;;14.75;11.00;;;;;12.86;100.00;99777.47;2088301;28;46203;-51
2023/11/12 01:05:16;;;;;;;;;11.50;10.25;;;;;12.86;100.00;99780.13;2083174;28;46827;-50
2023/11/12 01:06:16;;;;;;;;;11.00;11.00;;;;;12.84;100.00;99774.88;2089008;28;46607;-49
2023/11/12 01:07:16;;;;;;;;;11.50;11.50;;;;;12.83;100.00;99770.50;2096730;28;46173;-49
2023/11/12 01:08:16;;;;;;;;;11.50;11.50;;;;;12.82;100.00;99765.22;2078894;28;46277;-50
2023/11/12 01:09:17;;;;;;;;;12.25;10.50;;;;;12.81;100.00;99771.47;2090983;28;46685;-50
2023/11/12 01:10:17;;;;;;;;;10.33;10.33;;;;;12.80;100.00;99762.63;2058786;28;46460;-49
2023/11/12 01:11:17;;;;;;;;;9.33;9.00;;;;;12.80;100.00;99761.75;2067580;28;46822;-47
2023/11/12 01:12:23;;;;;;;;;14.50;14.00;;;;;12.79;100.00;99754.69;2097870;28;46338;-45
2023/11/12 01:13:23;;;;;;;;;10.00;9.00;;;;;12.78;100.00;99751.19;2080938;28;46895;-51
2023/11/12 01:14:23;;;;;;;;;10.75;9.25;;;;;12.81;100.00;99747.50;2088106;28;46741;-50
2023/11/12 01:15:24;;;;;;;;;12.75;10.75;;;;;12.83;100.00;99761.59;2086566;28;46286;-49
2023/11/12 01:16:25;;;;;;;;;14.00;12.50;;;;;12.84;100.00;99766.03;2071214;28;47125;-47
2023/11/12 01:17:27;;;;;;;;;11.00;9.25;;;;;12.86;100.00;99769.47;2095148;28;46991;-48
2023/11/12 01:18:28;;;;;;;;;8.75;8.25;;;;;12.86;100.00;99773.00;2071047;28;46954;-48
2023/11/12 01:19:28;;;;;;;;;9.00;7.25;;;;;12.82;100.00;99771.41;2062439;28;46943;-49
2023/11/12 01:20:29;;;;;;;;;11.00;10.33;;;;;12.82;100.00;99774.06;2089278;28;46637;-47
2023/11/12 01:21:29;;;;;;;;;9.00;8.33;;;;;12.79;100.00;99768.88;2083304;28;46187;-46
2023/11/12 01:22:29;;;;;;;;;9.50;8.00;;;;;12.77;100.00;99768.09;2088590;28;47313;-48
2023/11/12 01:23:30;;;;;;;;;8.33;8.33;;;;;12.78;100.00;99771.63;2064904;28;46251;-48
2023/11/12 01:24:30;;;;;;;;;11.00;10.00;;;;;12.77;100.00;99768.09;2074595;28;45728;-49
2023/11/12 01:25:32;;;;;;;;;7.33;6.33;;;;;12.77;100.00;99761.91;2093720;28;46544;-47
2023/11/12 01:26:34;;;;;;;;;10.50;10.50;;;;;12.76;100.00;99765.50;2066873;28;46480;-50
2023/11/12 01:27:34;;;;;;;;;12.40;11.40;;;;;12.76;100.00;99763.69;2068325;28;46465;-48
2023/11/12 01:28:35;;;;;;;;;11.50;11.50;;;;;12.77;100.00;99764.56;2056734;28;46474;-47
2023/11/12 01:29:36;;;;;;;;;10.50;8.50;;;;;12.78;100.00;99766.28;2084153;28;46748;-49
2023/11/12 01:30:37;;;;;;;;;11.67;10.33;;;;;12.79;100.00;99760.88;2077219;28;46334;-46
2023/11/12 01:31:37;;;;;;;;;9.75;9.25;;;;;12.81;100.00;99763.47;2097328;28;46686;-46
2023/11/12 01:32:37;;;;;;;;;10.00;9.33;;;;;12.82;100.00;99762.53;2079006;28;46860;-50
2023/11/12 01:33:38;;;;;;;;;9.00;9.00;;;;;12.84;100.00;99764.22;2093480;28;45595;-47
2023/11/12 01:34:38;;;;;;;;;9.00;8.00;;;;;12.84;100.00;99761.56;2064897;28;46630;-50
2023/11/12 01:35:38;;;;;;;;;9.00;7.00;;;;;12.83;100.00;99749.19;2068851;28;46165;-46
2023/11/12 01:36:39;;;;;;;;;12.00;10.00;;;;;12.84;100.00;99747.38;2104677;28;46289;-46
2023/11/12 01:37:39;;;;;;;;;9.00;9.00;;;;;12.83;100.00;99748.28;2084381;28;46743;-45
2023/11/12 01:38:39;;;;;;;;;5.33;5.33;;;;;12.85;100.00;99755.31;2090558;28;46697;-45
2023/11/12 01:39:40;;;;;;;;;9.00;8.00;;;;;12.85;100.00;99749.13;2094068;27;46855;-46
2023/11/12 01:40:41;;;;;;;;;8.33;8.33;;;;;12.86;100.00;99754.38;2073520;28;46817;-47
2023/11/12 01:41:41;;;;;;;;;9.00;8.50;;;;;12.87;100.00;99753.44;2096285;28;46575;-46
2023/11/12 01:42:42;;;;;;;;;7.00;7.00;;;;;12.89;100.00;99758.69;2066671;28;46362;-47
2023/11/12 01:43:43;;;;;;;;;6.75;6.75;;;;;12.89;100.00;99762.19;2094646;28;47072;-48
2023/11/12 01:44:43;;;;;;;;;6.67;5.00;;;;;12.88;100.00;99771.13;2095872;28;46598;-47
2023/11/12 01:45:44;;;;;;;;;6.00;6.00;;;;;12.88;100.00;99768.47;2101963;28;46598;-46
2023/11/12 01:46:44;;;;;;;;;8.67;8.00;;;;;12.88;100.00;99779.13;2099532;28;46916;-47
2023/11/12 01:47:46;;;;;;;;;7.00;7.00;;;;;12.88;100.00;99780.91;2097803;28;46467;-45
2023/11/12 01:48:48;;;;;;;;;8.50;8.25;;;;;12.89;100.00;99783.50;2099717;28;46798;-48
2023/11/12 01:49:48;;;;;;;;;8.50;8.50;;;;;12.90;100.00;99782.56;2093794;28;46970;-49
2023/11/12 01:50:50;;;;;;;;;10.00;8.00;;;;;12.91;100.00;99788.75;2097825;28;46572;-46
2023/11/12 01:51:51;;;;;;;;;9.00;7.50;;;;;12.92;100.00;99787.81;2096174;28;47147;-45
2023/11/12 01:52:53;;;;;;;;;8.25;8.00;;;;;12.91;100.00;99788.75;2098163;28;46628;-48
2023/11/12 01:53:53;;;;;;;;;6.25;5.25;;;;;12.90;100.00;99785.22;2089653;28;46740;-48
2023/11/12 01:54:56;;;;;;;;;7.00;7.00;;;;;12.89;100.00;99786.16;2079552;28;46723;-46
2023/11/12 01:55:57;;;;;;;;;6.75;5.50;;;;;12.88;100.00;99784.44;2088099;28;46946;-45
2023/11/12 01:56:58;;;;;;;;;9.33;6.33;;;;;12.89;100.00;99779.97;2096195;28;45394;-47
2023/11/12 01:57:59;;;;;;;;;9.00;8.25;;;;;12.89;100.00;99782.63;2094295;28;46800;-49
2023/11/12 01:59:01;;;;;;;;;5.00;5.00;;;;;12.89;100.00;99783.50;2095583;28;46376;-47
2023/11/12 02:00:10;;;;;;;;;8.75;7.50;;;;;12.90;100.00;99787.03;2095814;28;46353;-45
2023/11/12 02:01:10;;;;;;;;;7.75;7.75;;;;;12.92;100.00;99779.84;2094858;28;46446;-46
2023/11/12 02:02:13;;;;;;;;;9.67;8.67;;;;;12.93;100.00;99786.88;2096236;28;46700;-45
2023/11/12 02:03:16;;;;;;;;;8.25;7.75;;;;;12.94;100.00;99781.47;2096226;28;46499;-45
2023/11/12 02:04:17;;;;;;;;;6.75;6.75;;;;;12.94;100.00;99785.94;2095917;28;46926;-45
2023/11/12 02:05:19;;;;;;;;;8.00;8.00;;;;;12.98;100.00;99781.38;2103279;27;46047;-46
2023/11/12 02:06:19;;;;;;;;;5.75;5.75;;;;;12.87;100.00;99773.88;2103580;28;46574;-46
2023/11/12 02:07:21;;;;;;;;;7.00;7.00;;;;;12.86;100.00;99778.31;2095840;28;46682;-45
2023/11/12 02:08:22;;;;;;;;;6.75;6.75;;;;;12.83;100.00;99770.50;2095530;28;46257;-44
2023/11/12 02:09:23;;;;;;;;;8.00;8.00;;;;;12.84;100.00;99774.88;2095426;28;46896;-45
2023/11/12 02:10:23;;;;;;;;;9.00;8.00;;;;;12.85;100.00;99775.75;2095970;28;45414;-45
2023/11/12 02:11:24;;;;;;;;;10.00;6.67;;;;;12.85;100.00;99778.41;2095465;28;46825;-48
2023/11/12 02:12:24;;;;;;;;;8.00;8.00;;;;;12.85;100.00;99773.94;2095782;28;46538;-48
2023/11/12 02:13:24;;;;;;;;;6.00;6.00;;;;;12.95;100.00;99779.69;2097194;28;46531;-49
2023/11/12 02:14:25;;;;;;;;;6.67;6.33;;;;;12.96;100.00;99774.31;2103995;28;46796;-49
2023/11/12 02:15:26;;;;;;;;;7.67;7.00;;;;;12.98;100.00;99779.56;2080591;28;46923;-48
2023/11/12 02:16:26;;;;;;;;;6.67;5.33;;;;;12.99;100.00;99780.44;2095299;28;46429;-48
2023/11/12 02:17:27;;;;;;;;;7.00;7.00;;;;;12.98;100.00;99781.38;2088372;28;46160;-47
2023/11/12 02:18:28;;;;;;;;;6.00;5.25;;;;;12.96;100.00;99779.63;2057600;28;46671;-48
2023/11/12 02:19:29;;;;;;;;;8.33;8.33;;;;;12.98;100.00;99779.56;2062769;28;46614;-48
2023/11/12 02:20:30;;;;;;;;;6.00;6.00;;;;;12.96;100.00;99778.78;2062929;28;46440;-47
2023/11/12 02:21:32;;;;;;;;;7.00;7.00;;;;;12.95;100.00;99775.22;2061546;28;47003;-50
2023/11/12 02:22:33;;;;;;;;;7.75;7.00;;;;;12.96;100.00;99776.13;2062754;28;46373;-44
2023/11/12 02:23:38;;;;;;;;;7.50;7.00;;;;;12.97;100.00;99772.50;2062878;28;46176;-48
2023/11/12 02:24:38;;;;;;;;;5.50;5.50;;;;;12.98;100.00;99768.91;2058330;28;46670;-47
2023/11/12 02:25:39;;;;;;;;;8.00;6.00;;;;;12.98;100.00;99768.03;2061552;28;46355;-50
2023/11/12 02:26:39;;;;;;;;;7.33;7.00;;;;;12.99;100.00;99770.63;2070252;28;46541;-48
2023/11/12 02:27:40;;;;;;;;;7.33;5.33;;;;;13.01;100.00;99771.41;2070078;28;46951;-47
2023/11/12 02:28:40;;;;;;;;;4.67;4.67;;;;;13.01;100.00;99767.91;2054316;28;46805;-49
2023/11/12 02:29:48;;;;;;;;;5.33;5.00;;;;;13.03;100.00;99774.00;2054365;28;46464;-48
2023/11/12 02:30:55;;;;;;;;;8.25;8.25;;;;;13.03;100.00;99768.69;2054011;28;46054;-46
2023/11/12 02:31:56;;;;;;;;;7.00;6.00;;;;;13.02;100.00;99775.81;2053805;28;47041;-48
2023/11/12 02:32:56;;;;;;;;;5.00;4.33;;;;;13.02;100.00;99769.63;2058149;28;46787;-51
2023/11/12 02:33:57;;;;;;;;;8.00;8.00;;;;;13.02;100.00;99774.94;2062182;28;46781;-48
2023/11/12 02:34:58;;;;;;;;;8.00;7.00;;;;;13.02;100.00;99765.16;2057341;28;45040;-46
2023/11/12 02:35:58;;;;;;;;;5.75;5.75;;;;;13.01;100.00;99767.91;2054285;28;45946;-48
2023/11/12 02:36:58;;;;;;;;;7.00;7.00;;;;;13.01;100.00;99757.25;2053983;28;46437;-50
2023/11/12 02:37:59;;;;;;;;;10.33;5.00;;;;;12.99;100.00;99761.78;2054705;28;45998;-49
2023/11/12 02:38:59;;;;;;;;;9.67;7.00;;;;;12.98;100.00;99762.72;2057447;28;45577;-46
2023/11/12 02:39:59;;;;;;;;;4.00;4.00;;;;;12.95;100.00;99772.56;2061910;28;46427;-46
2023/11/12 02:41:02;;;;;;;;;6.67;5.67;;;;;12.94;100.00;99769.97;2045764;28;46469;-48
2023/11/12 02:42:03;;;;;;;;;6.75;4.00;;;;;12.93;100.00;99771.75;2053353;28;46725;-47
2023/11/12 02:43:03;;;;;;;;;3.33;3.33;;;;;12.92;100.00;99761.19;2056852;28;46424;-52
2023/11/12 02:44:08;;;;;;;;;4.00;4.00;;;;;12.89;100.00;99756.88;2062216;28;45628;-48
2023/11/12 02:45:10;;;;;;;;;3.00;3.00;;;;;12.88;100.00;99764.94;2062788;28;46272;-49
2023/11/12 02:46:11;;;;;;;;;4.75;4.00;;;;;12.85;100.00;99763.28;2062602;28;46577;-52
2023/11/12 02:47:12;;;;;;;;;3.25;3.00;;;;;12.82;100.00;99758.09;2061735;28;46905;-49
2023/11/12 02:48:12;;;;;;;;;4.67;4.00;;;;;12.81;100.00;99758.16;2061297;28;46210;-49
2023/11/12 02:49:28;;;;;;;;;5.00;4.33;;;;;12.79;100.00;99760.88;2062457;28;46127;-52
2023/11/12 02:50:32;;;;;;;;;4.00;4.00;;;;;12.78;100.00;99758.31;2061993;28;46673;-49
2023/11/12 02:51:33;;;;;;;;;2.50;2.50;;;;;12.77;100.00;99762.75;2089881;28;46526;-50
2023/11/12 02:52:33;;;;;;;;;5.00;4.00;;;;;12.77;100.00;99765.44;2079263;28;46307;-50
2023/11/12 02:53:34;;;;;;;;;5.00;4.00;;;;;12.77;100.00;99759.25;2084149;28;46200;-46
2023/11/12 02:54:35;;;;;;;;;4.00;4.00;;;;;12.77;100.00;99764.56;2054115;28;46139;-47
2023/11/12 02:55:36;;;;;;;;;3.00;3.00;;;;;12.77;100.00;99764.56;2060780;28;45244;-44
2023/11/12 02:56:36;;;;;;;;;4.50;3.00;;;;;12.81;100.00;99766.16;2089876;28;46482;-48
2023/11/12 02:57:36;;;;;;;;;4.00;4.00;;;;;12.82;100.00;99767.88;2086828;28;46055;-47
2023/11/12 02:58:37;;;;;;;;;3.00;2.00;;;;;12.82;100.00;99759.88;2076659;28;46817;-45
2023/11/12 02:59:37;;;;;;;;;4.00;3.00;;;;;12.80;100.00;99765.28;2093030;28;46642;-46
2023/11/12 03:00:38;;;;;;;;;4.67;4.67;;;;;12.79;100.00;99770.69;2079714;28;46783;-47
2023/11/12 03:01:38;;;;;;;;;5.00;5.00;;;;;12.76;100.00;99766.38;2083529;28;46336;-47
2023/11/12 03:02:38;;;;;;;;;4.67;4.67;;;;;12.75;100.00;99769.09;2092865;28;46366;-45
2023/11/12 03:03:38;;;;;;;;;4.33;4.33;;;;;12.73;100.00;99758.53;2101022;28;46503;-44
2023/11/12 03:04:39;;;;;;;;;5.67;4.67;;;;;12.74;100.00;99768.25;2095741;28;46342;-49
2023/11/12 03:05:39;;;;;;;;;3.00;3.00;;;;;12.76;100.00;99765.50;2066267;28;46045;-50
2023/11/12 03:06:40;;;;;;;;;3.00;3.00;;;;;12.76;100.00;99762.84;2067711;28;46838;-45
2023/11/12 03:07:41;;;;;;;;;3.67;3.67;;;;;12.77;100.00;99756.56;2083232;28;46746;-47
2023/11/12 03:08:41;;;;;;;;;2.50;2.50;;;;;12.75;100.00;99753.13;2072377;28;46597;-45
2023/11/12 03:09:42;;;;;;;;;5.00;3.00;;;;;12.74;100.00;99752.25;2088703;28;46790;-46
2023/11/12 03:10:42;;;;;;;;;3.67;3.33;;;;;12.73;100.00;99749.69;2097792;28;44999;-45
2023/11/12 03:11:43;;;;;;;;;5.00;3.00;;;;;12.71;100.00;99749.75;2099216;28;46255;-46
2023/11/12 03:12:44;;;;;;;;;3.00;3.00;;;;;12.72;100.00;99747.94;2103867;28;46177;-48
2023/11/12 03:13:44;;;;;;;;;7.33;5.00;;;;;12.71;100.00;99746.22;2103872;28;46577;-45
2023/11/12 03:14:44;;;;;;;;;5.00;4.00;;;;;12.70;100.00;99748.00;2108878;27;46302;-48
2023/11/12 03:15:45;;;;;;;;;3.00;3.00;;;;;12.69;100.00;99746.28;2105239;27;46145;-48
2023/11/12 03:16:48;;;;;;;;;3.00;3.00;;;;;12.67;100.00;99741.03;2101416;28;46758;-48
2023/11/12 03:17:51;;;;;;;;;4.00;4.00;;;;;12.67;100.00;99745.47;2100720;27;46113;-46
2023/11/12 03:18:51;;;;;;;;;3.75;3.75;;;;;12.64;100.00;99737.63;2107893;27;46857;-45
2023/11/12 03:19:51;;;;;;;;;7.00;5.00;;;;;12.67;100.00;99742.81;2105270;28;46493;-45
2023/11/12 03:20:52;;;;;;;;;4.33;3.00;;;;;12.67;100.00;99737.50;2104353;27;46349;-45
2023/11/12 03:21:53;;;;;;;;;3.00;3.00;;;;;12.65;100.00;99744.69;2096810;28;46396;-48
2023/11/12 03:22:53;;;;;;;;;5.33;3.67;;;;;12.63;100.00;99749.22;2102424;28;46854;-44
2023/11/12 03:23:55;;;;;;;;;5.67;4.00;;;;;12.52;100.00;99744.38;2105011;28;46642;-46
2023/11/12 03:24:55;;;;;;;;;6.50;4.00;;;;;12.49;100.00;99746.31;2096473;28;46118;-44
2023/11/12 03:25:56;;;;;;;;;6.00;5.00;;;;;12.45;100.00;99750.03;2099663;28;47471;-44
2023/11/12 03:26:56;;;;;;;;;6.67;4.00;;;;;12.59;100.00;99748.50;2107506;27;45848;-45
2023/11/12 03:27:56;;;;;;;;;5.00;5.00;;;;;12.59;100.00;99751.16;2111275;27;46784;-45
2023/11/12 03:28:57;;;;;;;;;3.33;3.33;;;;;12.59;100.00;99745.84;2106597;27;46116;-47
2023/11/12 03:29:57;;;;;;;;;5.00;5.00;;;;;12.61;100.00;99748.44;2109061;27;46693;-44
2023/11/12 03:30:57;;;;;;;;;4.00;4.00;;;;;12.63;100.00;99743.91;2087883;28;45599;-47
2023/11/12 03:31:58;;;;;;;;;5.67;4.00;;;;;12.55;100.00;99754.03;2101762;28;46651;-46
2023/11/12 03:32:58;;;;;;;;;4.33;4.33;;;;;12.60;100.00;99746.72;2110467;27;46875;-46
2023/11/12 03:34:00;;;;;;;;;3.33;3.33;;;;;12.63;100.00;99749.22;2107659;27;46960;-51
2023/11/12 03:35:01;;;;;;;;;3.25;3.25;;;;;12.61;100.00;99751.97;2107716;27;46414;-48
2023/11/12 03:36:02;;;;;;;;;4.00;4.00;;;;;12.62;100.00;99752.81;2109390;27;46242;-44
2023/11/12 03:37:03;;;;;;;;;3.00;3.00;;;;;12.62;100.00;99752.81;2103537;27;46351;-49
2023/11/12 03:38:05;;;;;;;;;5.00;5.00;;;;;12.62;100.00;99755.47;2109298;27;46470;-46
2023/11/12 03:39:05;;;;;;;;;4.00;3.00;;;;;12.62;100.00;99756.34;2109260;27;46497;-49
2023/11/12 03:40:07;;;;;;;;;3.75;3.25;;;;;12.62;100.00;99752.81;2097597;28;46869;-49
2023/11/12 03:41:12;;;;;;;;;1.00;1.00;;;;;12.65;100.00;99752.69;2101727;28;46872;-47
2023/11/12 03:42:12;;;;;;;;;3.75;3.00;;;;;12.65;100.00;99758.00;2096064;27;45088;-44
2023/11/12 03:43:12;;;;;;;;;4.00;2.67;;;;;12.64;100.00;99750.94;2075678;28;46421;-48
2023/11/12 03:44:13;;;;;;;;;4.00;3.33;;;;;12.62;100.00;99753.69;2067026;28;46340;-46
2023/11/12 03:45:15;;;;;;;;;3.75;3.75;;;;;12.61;100.00;99754.63;2063910;28;46398;-48
2023/11/12 03:46:15;;;;;;;;;2.00;2.00;;;;;12.60;100.00;99754.69;2091954;28;46317;-48
2023/11/12 03:47:16;;;;;;;;;3.33;3.33;;;;;12.60;100.00;99755.56;2089220;28;46115;-51
2023/11/12 03:48:16;;;;;;;;;4.33;2.67;;;;;12.60;100.00;99752.91;2085133;28;46318;-47
2023/11/12 03:49:17;;;;;;;;;5.00;5.00;;;;;12.59;100.00;99752.97;2065878;28;46963;-46
2023/11/12 03:50:17;;;;;;;;;3.00;3.00;;;;;12.59;100.00;99753.84;2076193;28;46176;-49
2023/11/12 03:51:17;;;;;;;;;5.00;3.00;;;;;12.59;100.00;99745.84;2078284;28;46369;-48
2023/11/12 03:52:18;;;;;;;;;5.00;3.00;;;;;12.58;100.00;99752.09;2094410;27;46443;-48
2023/11/12 03:53:19;;;;;;;;;2.00;2.00;;;;;12.56;100.00;99753.09;2071450;28;46234;-47
2023/11/12 03:54:19;;;;;;;;;3.00;3.00;;;;;12.54;100.00;99750.50;2069117;28;46164;-48
2023/11/12 03:55:19;;;;;;;;;4.67;3.00;;;;;12.56;100.00;99755.75;2093701;28;46733;-48
2023/11/12 03:56:19;;;;;;;;;4.00;3.00;;;;;12.56;100.00;99753.09;2072392;28;45761;-46
2023/11/12 03:57:21;;;;;;;;;3.00;3.00;;;;;12.56;100.00;99748.63;2087942;28;46396;-49
2023/11/12 03:58:21;;;;;;;;;5.00;3.00;;;;;12.55;100.00;99752.22;2091091;28;45995;-51
2023/11/12 03:59:22;;;;;;;;;2.33;2.33;;;;;12.51;100.00;99745.31;2068278;28;46693;-46
2023/11/12 04:00:24;;;;;;;;;3.00;2.00;;;;;12.48;100.00;99742.81;2092946;28;46288;-46
2023/11/12 04:01:25;;;;;;;;;2.75;2.75;;;;;12.46;100.00;99747.34;2084396;28;46612;-47
2023/11/12 04:02:25;;;;;;;;;3.75;3.25;;;;;12.45;100.00;99747.38;2080758;28;46430;-45
2023/11/12 04:03:27;;;;;;;;;3.00;3.00;;;;;12.53;100.00;99738.13;2098924;28;46358;-49
2023/11/12 04:04:28;;;;;;;;;1.25;1.25;;;;;12.55;100.00;99746.03;2078533;28;46222;-46
2023/11/12 04:05:28;;;;;;;;;3.67;3.00;;;;;12.53;100.00;99742.59;2091514;27;46397;-47
2023/11/12 04:06:28;;;;;;;;;3.67;2.00;;;;;12.51;100.00;99742.66;2092312;28;46638;-45
2023/11/12 04:07:29;;;;;;;;;2.67;2.67;;;;;12.52;100.00;99747.03;2077426;28;46604;-49
2023/11/12 04:08:29;;;;;;;;;6.67;2.67;;;;;12.53;100.00;99737.25;2075250;28;46324;-47
2023/11/12 04:09:30;;;;;;;;;2.00;2.00;;;;;12.53;100.00;99738.13;2080989;28;46669;-48
2023/11/12 04:10:31;;;;;;;;;4.00;2.67;;;;;12.53;100.00;99739.91;2082173;27;46367;-48
2023/11/12 04:11:32;;;;;;;;;3.00;3.00;;;;;12.50;100.00;99740.94;2098618;28;46394;-47
2023/11/12 04:12:33;;;;;;;;;3.00;3.00;;;;;12.48;100.00;99737.47;2078383;28;46776;-47
2023/11/12 04:13:33;;;;;;;;;2.00;2.00;;;;;12.46;100.00;99736.69;2090875;27;47009;-44
2023/11/12 04:14:33;;;;;;;;;2.67;2.67;;;;;12.46;100.00;99746.47;2091857;28;46160;-46
2023/11/12 04:15:34;;;;;;;;;3.00;3.00;;;;;12.45;100.00;99739.38;2076944;28;46185;-45
2023/11/12 04:16:35;;;;;;;;;2.75;2.75;;;;;12.44;100.00;99735.88;2087648;28;46458;-49
2023/11/12 04:17:36;;;;;;;;;2.00;2.00;;;;;12.43;100.00;99738.59;2061679;28;46769;-47
2023/11/12 04:18:36;;;;;;;;;4.00;4.00;;;;;12.43;100.00;99741.25;2068278;28;46465;-46
2023/11/12 04:19:37;;;;;;;;;3.67;3.67;;;;;12.41;100.00;99738.69;2099249;28;46411;-48
2023/11/12 04:20:37;;;;;;;;;3.33;3.33;;;;;12.42;100.00;99739.53;2079299;28;46222;-47
2023/11/12 04:21:37;;;;;;;;;4.00;4.00;;;;;12.40;100.00;99736.94;2091266;28;46374;-45
2023/11/12 04:22:41;;;;;;;;;2.33;2.00;;;;;12.38;100.00;99733.50;2092102;28;46850;-49
2023/11/12 04:23:44;;;;;;;;;3.00;3.00;;;;;12.34;100.00;99735.44;2078135;28;46924;-46
2023/11/12 04:24:44;;;;;;;;;2.75;2.75;;;;;12.32;100.00;99734.66;2086657;28;46803;-50
2023/11/12 04:25:47;;;;;;;;;2.00;2.00;;;;;12.32;100.00;99736.41;2080368;28;46265;-47
2023/11/12 04:26:48;;;;;;;;;4.00;4.00;;;;;12.30;100.00;99735.63;2070665;28;46854;-48
2023/11/12 04:27:49;;;;;;;;;2.67;2.67;;;;;12.27;100.00;99733.97;2074763;28;46331;-49
2023/11/12 04:28:50;;;;;;;;;3.00;2.00;;;;;12.26;100.00;99734.03;2083267;28;46148;-46
2023/11/12 04:29:50;;;;;;;;;5.00;3.00;;;;;12.24;100.00;99728.78;2090105;28;46403;-49
2023/11/12 04:30:50;;;;;;;;;3.00;3.00;;;;;12.22;100.00;99738.63;2098136;28;46846;-45
2023/11/12 04:31:51;;;;;;;;;3.00;3.00;;;;;12.24;100.00;99731.44;2075936;27;46291;-49
2023/11/12 04:32:51;;;;;;;;;1.00;1.00;;;;;12.25;100.00;99733.19;2096974;28;46264;-46
2023/11/12 04:33:53;;;;;;;;;4.00;2.67;;;;;12.25;100.00;99733.19;2065696;28;46644;-48
2023/11/12 04:34:54;;;;;;;;;2.50;2.00;;;;;12.25;100.00;99740.28;2068545;28;46744;-46
2023/11/12 04:35:55;;;;;;;;;2.25;2.25;;;;;12.24;100.00;99736.78;2102602;28;46660;-45
2023/11/12 04:36:56;;;;;;;;;3.67;2.67;;;;;12.24;100.00;99734.13;2084327;28;45727;-46
2023/11/12 04:37:57;;;;;;;;;3.33;3.00;;;;;12.24;100.00;99734.13;2088659;28;46192;-47
2023/11/12 04:38:57;;;;;;;;;0.00;0.00;;;;;12.28;100.00;99733.03;2098321;28;47051;-46
2023/11/12 04:40:00;;;;;;;;;2.00;2.00;;;;;12.29;100.00;99737.44;2072194;28;46836;-45
2023/11/12 04:41:00;;;;;;;;;3.00;3.00;;;;;12.31;100.00;99732.91;2098791;28;46850;-48